Time;durP1;ratioP1;P1;durP2;ratioP2;P2;SDS_P1;SDS_P2;PMS_P1;PMS_P2;Temp;Humidity;BMP_temperature;BMP_pressure;BME280_temperature;BME280_humidity;BME280_pressure;Samples;Min_cycle;Max_cycle;Signal;HPM_P1;HPM_P2
2022/07/16 00:01:22;;;;;;;17.00;15.30;;;19.40;91.40;;;;;;5037937;28;20214;-58
2022/07/16 00:03:59;;;;;;;15.83;14.50;;;19.40;91.10;;;;;;5031076;28;20186;-58
2022/07/16 00:06:26;;;;;;;17.40;15.80;;;19.40;91.30;;;;;;5039490;28;20336;-58
2022/07/16 00:08:52;;;;;;;16.00;14.60;;;19.50;91.50;;;;;;5043052;28;20183;-58
2022/07/16 00:11:18;;;;;;;16.27;14.80;;;19.50;91.30;;;;;;5045035;28;20191;-58
2022/07/16 00:13:44;;;;;;;12.23;11.23;;;19.50;90.90;;;;;;5024108;28;20212;-58
2022/07/16 00:16:10;;;;;;;13.10;11.90;;;19.40;90.50;;;;;;5031544;28;20234;-58
2022/07/16 00:21:22;;;;;;;11.93;10.90;;;19.50;90.40;;;;;;5056142;28;20209;-58
2022/07/16 00:23:48;;;;;;;9.43;8.63;;;19.40;89.70;;;;;;5034262;28;20186;-58
2022/07/16 00:26:14;;;;;;;10.60;9.70;;;19.40;89.70;;;;;;5058230;28;20239;-58
2022/07/16 00:28:39;;;;;;;11.53;10.40;;;19.30;89.40;;;;;;5039391;28;20178;-58
2022/07/16 00:31:05;;;;;;;10.50;9.50;;;19.30;89.80;;;;;;5037491;28;20734;-58
2022/07/16 00:33:31;;;;;;;11.53;10.33;;;19.30;89.80;;;;;;5037553;28;20191;-58
2022/07/16 00:35:56;;;;;;;10.83;9.60;;;19.30;90.20;;;;;;5041655;28;20218;-58
2022/07/16 00:38:22;;;;;;;11.57;10.57;;;19.10;88.50;;;;;;5023323;28;20294;-58
2022/07/16 00:40:48;;;;;;;11.80;10.80;;;19.20;90.50;;;;;;5052881;28;20297;-58
2022/07/16 00:43:14;;;;;;;12.33;11.10;;;19.30;90.80;;;;;;5002769;28;20320;-58
2022/07/16 00:45:40;;;;;;;12.90;11.80;;;19.30;90.80;;;;;;5038891;28;20186;-58
2022/07/16 00:48:07;;;;;;;14.13;12.83;;;19.30;90.60;;;;;;5063275;28;20185;-58
2022/07/16 00:50:34;;;;;;;12.03;10.83;;;19.40;90.70;;;;;;5034818;28;20278;-58
2022/07/16 00:53:01;;;;;;;13.90;12.70;;;19.40;89.60;;;;;;5048317;28;20197;-58
2022/07/16 00:55:27;;;;;;;13.37;12.27;;;19.30;90.60;;;;;;5037343;28;20199;-58
2022/07/16 00:57:53;;;;;;;13.77;12.57;;;19.40;90.40;;;;;;5037124;28;20193;-58
2022/07/16 01:00:19;;;;;;;13.33;12.13;;;19.50;90.60;;;;;;5045103;28;20203;-58
2022/07/16 01:02:45;;;;;;;13.87;12.57;;;19.50;90.80;;;;;;5037013;28;20204;-58
2022/07/16 01:05:11;;;;;;;13.30;12.00;;;19.40;90.70;;;;;;5020874;28;20331;-58
2022/07/16 01:07:37;;;;;;;13.50;12.30;;;19.50;90.20;;;;;;5020191;28;20321;-58
2022/07/16 01:10:06;;;;;;;13.93;12.73;;;19.40;90.60;;;;;;5048410;28;20186;-58
2022/07/16 01:12:32;;;;;;;14.37;13.03;;;19.40;90.70;;;;;;5034664;28;20187;-58
2022/07/16 01:14:58;;;;;;;15.13;13.83;;;19.50;90.50;;;;;;5040437;28;20254;-58
2022/07/16 01:17:24;;;;;;;12.60;11.60;;;19.50;90.70;;;;;;5060239;28;20186;-58
2022/07/16 01:19:50;;;;;;;14.43;13.00;;;19.50;89.70;;;;;;5053145;28;20235;-58
2022/07/16 01:22:20;;;;;;;14.27;12.97;;;19.40;90.20;;;;;;5034836;28;20179;-58
2022/07/16 01:24:47;;;;;;;14.43;13.03;;;19.40;90.30;;;;;;5042733;28;20186;-58
2022/07/16 01:27:13;;;;;;;14.17;12.93;;;19.40;90.40;;;;;;5037956;28;20188;-58
2022/07/16 01:29:39;;;;;;;14.07;12.90;;;19.50;90.20;;;;;;5034706;28;20281;-58
2022/07/16 01:32:05;;;;;;;13.50;12.20;;;19.40;90.40;;;;;;5037166;28;20190;-58
2022/07/16 01:34:31;;;;;;;14.37;12.90;;;19.40;89.50;;;;;;5037106;28;20190;-58
2022/07/16 01:37:03;;;;;;;14.20;12.90;;;19.40;89.60;;;;;;5053987;28;20190;-58
2022/07/16 01:39:30;;;;;;;12.60;11.60;;;19.30;89.70;;;;;;5069811;28;20219;-58
2022/07/16 01:41:58;;;;;;;12.87;11.60;;;19.40;89.30;;;;;;5036227;28;20179;-58
2022/07/16 01:44:26;;;;;;;13.43;12.23;;;19.40;89.10;;;;;;5054500;28;20182;-58
2022/07/16 01:46:52;;;;;;;14.20;12.97;;;19.30;89.60;;;;;;5020531;28;20187;-58
2022/07/16 01:49:18;;;;;;;12.70;11.40;;;19.30;89.70;;;;;;5042254;28;20193;-58
2022/07/16 01:51:44;;;;;;;13.17;11.90;;;19.30;89.70;;;;;;5035975;28;20186;-58
2022/07/16 01:54:10;;;;;;;13.93;12.50;;;19.30;89.50;;;;;;5045161;28;20205;-58
2022/07/16 01:56:36;;;;;;;12.13;11.10;;;19.30;89.30;;;;;;5019154;28;20175;-58
2022/07/16 01:59:02;;;;;;;12.47;11.40;;;19.20;89.10;;;;;;5019640;28;20195;-58
2022/07/16 02:01:27;;;;;;;11.87;10.70;;;19.10;89.20;;;;;;5057129;28;20261;-58
2022/07/16 02:03:53;;;;;;;12.97;11.80;;;19.20;88.90;;;;;;5025426;28;20210;-58
2022/07/16 02:06:19;;;;;;;13.37;12.17;;;19.20;89.00;;;;;;5019559;28;20280;-58
2022/07/16 02:08:44;;;;;;;14.10;12.87;;;19.20;88.60;;;;;;5018339;28;20198;-58
2022/07/16 02:11:10;;;;;;;13.73;12.43;;;19.10;88.50;;;;;;5036522;28;20190;-58
2022/07/16 02:13:36;;;;;;;13.87;12.20;;;19.00;88.80;;;;;;5055068;28;20200;-58
2022/07/16 02:16:02;;;;;;;13.53;12.37;;;19.10;88.60;;;;;;5021056;28;20281;-58
2022/07/16 02:18:27;;;;;;;13.43;12.13;;;19.00;88.50;;;;;;5036905;28;20191;-58
2022/07/16 02:20:53;;;;;;;13.53;12.33;;;19.00;87.70;;;;;;5019892;28;20224;-58
2022/07/16 02:23:19;;;;;;;13.73;12.23;;;19.00;88.40;;;;;;5034780;28;20186;-58
2022/07/16 02:25:45;;;;;;;13.70;12.40;;;18.90;88.30;;;;;;5052797;28;20183;-58
2022/07/16 02:28:10;;;;;;;13.13;12.00;;;19.00;88.50;;;;;;5055943;28;20186;-58
2022/07/16 02:30:44;;;;;;;13.13;11.80;;;18.90;88.20;;;;;;5042050;28;20190;-58
2022/07/16 02:33:14;;;;;;;12.77;11.43;;;18.90;88.30;;;;;;5072661;28;20178;-58
2022/07/16 02:35:40;;;;;;;14.73;13.20;;;18.90;88.30;;;;;;5071815;28;20272;-58
2022/07/16 02:38:06;;;;;;;14.37;12.87;;;18.90;88.10;;;;;;5039641;28;20324;-58
2022/07/16 02:40:33;;;;;;;15.00;13.50;;;18.90;88.00;;;;;;5025767;28;20218;-58
2022/07/16 02:43:00;;;;;;;15.63;13.87;;;18.90;88.20;;;;;;5023558;28;20241;-58
2022/07/16 02:45:25;;;;;;;15.13;13.73;;;18.90;88.20;;;;;;5056083;28;20189;-58
2022/07/16 02:47:51;;;;;;;16.83;13.40;;;18.90;88.40;;;;;;5046219;28;20195;-58
2022/07/16 02:50:17;;;;;;;12.93;11.83;;;18.90;87.90;;;;;;5039290;28;20191;-58
2022/07/16 02:52:43;;;;;;;14.43;13.13;;;18.70;87.60;;;;;;5055292;28;20229;-58
2022/07/16 02:55:09;;;;;;;15.07;13.67;;;18.80;88.80;;;;;;5042185;28;20191;-58
2022/07/16 02:57:35;;;;;;;14.97;13.30;;;18.90;88.90;;;;;;5055219;28;20201;-58
2022/07/16 03:00:01;;;;;;;15.53;14.03;;;18.80;87.30;;;;;;5039338;28;20218;-58
2022/07/16 03:02:26;;;;;;;14.23;12.93;;;18.70;87.20;;;;;;5055818;28;20232;-58
2022/07/16 03:04:52;;;;;;;15.43;13.73;;;18.50;86.00;;;;;;5022316;28;20190;-58
2022/07/16 03:07:18;;;;;;;14.67;13.23;;;18.60;88.50;;;;;;5014135;28;20267;-58
2022/07/16 03:09:43;;;;;;;14.67;13.33;;;18.70;87.80;;;;;;5051566;28;20242;-58
2022/07/16 03:12:09;;;;;;;14.13;12.90;;;18.80;88.00;;;;;;5039189;28;20187;-58
2022/07/16 03:14:34;;;;;;;14.83;13.07;;;18.70;88.00;;;;;;5026309;28;20204;-58
2022/07/16 03:17:00;;;;;;;14.63;13.13;;;18.80;88.10;;;;;;5023390;28;20187;-58
2022/07/16 03:19:26;;;;;;;15.03;13.63;;;18.80;87.30;;;;;;5038498;28;20191;-58
2022/07/16 03:21:51;;;;;;;14.63;13.23;;;18.80;86.90;;;;;;5026926;28;20237;-58
2022/07/16 03:24:17;;;;;;;14.67;13.27;;;18.80;87.20;;;;;;5038639;28;20205;-58
2022/07/16 03:26:42;;;;;;;13.87;12.57;;;18.70;87.30;;;;;;5022093;28;20190;-58
2022/07/16 03:29:08;;;;;;;13.13;12.03;;;18.70;87.10;;;;;;5029669;28;20191;-58
2022/07/16 03:31:34;;;;;;;12.87;11.77;;;18.70;86.80;;;;;;5038248;28;20243;-58
2022/07/16 03:33:59;;;;;;;14.73;13.40;;;18.80;87.00;;;;;;5029618;28;20190;-58
2022/07/16 03:36:26;;;;;;;14.20;12.13;;;18.80;86.90;;;;;;5037859;28;20186;-58
2022/07/16 03:39:25;;;;;;;13.50;12.20;;;18.80;86.60;;;;;;5023522;28;20187;-58
2022/07/16 03:41:44;;;;;;;14.30;12.90;;;18.80;86.70;;;;;;5055444;28;20265;-58
2022/07/16 03:44:11;;;;;;;14.00;12.80;;;18.80;86.60;;;;;;5054601;28;20225;-58
2022/07/16 03:46:37;;;;;;;15.07;13.57;;;18.60;85.90;;;;;;5053695;28;20206;-58
2022/07/16 03:49:03;;;;;;;14.03;12.77;;;18.60;87.00;;;;;;5054570;28;20183;-61
2022/07/16 03:51:29;;;;;;;13.70;12.43;;;18.70;86.60;;;;;;5040762;28;20195;-60
2022/07/16 03:53:55;;;;;;;14.13;12.83;;;18.70;86.20;;;;;;5037807;28;20195;-61
2022/07/16 03:56:21;;;;;;;14.17;12.77;;;18.70;86.50;;;;;;5053137;28;20217;-60
2022/07/16 03:58:47;;;;;;;15.23;13.83;;;18.70;86.10;;;;;;5039828;28;20254;-60
2022/07/16 04:01:13;;;;;;;14.67;13.40;;;18.70;86.30;;;;;;5049636;28;20206;-60
2022/07/16 04:03:39;;;;;;;15.37;13.73;;;18.70;85.70;;;;;;5040700;28;20214;-60
2022/07/16 04:06:05;;;;;;;14.40;12.90;;;18.70;86.10;;;;;;5068064;28;20221;-60
2022/07/16 04:08:31;;;;;;;16.30;14.73;;;18.70;86.10;;;;;;5051450;28;20235;-60
2022/07/16 04:10:57;;;;;;;14.77;13.20;;;18.70;86.60;;;;;;5019749;28;20195;-60
2022/07/16 04:13:22;;;;;;;15.17;13.77;;;18.80;86.40;;;;;;5044798;28;20278;-60
2022/07/16 04:15:48;;;;;;;15.13;13.63;;;18.80;86.20;;;;;;5040849;28;20206;-60
2022/07/16 04:18:14;;;;;;;14.13;12.77;;;18.80;86.10;;;;;;5025598;28;20267;-59
2022/07/16 04:20:40;;;;;;;13.40;12.20;;;18.80;86.70;;;;;;5027132;28;20218;-59
2022/07/16 04:23:06;;;;;;;13.40;11.87;;;18.80;86.30;;;;;;5036521;28;20237;-59
2022/07/16 04:25:32;;;;;;;11.90;10.70;;;18.80;86.30;;;;;;5040966;28;20180;-59
2022/07/16 04:27:57;;;;;;;12.13;11.03;;;18.80;86.20;;;;;;5025120;28;20195;-59
2022/07/16 04:30:23;;;;;;;13.03;11.70;;;18.80;85.80;;;;;;5059210;28;20189;-59
2022/07/16 04:32:49;;;;;;;11.70;10.60;;;18.80;85.70;;;;;;5022652;28;20198;-59
2022/07/16 04:35:15;;;;;;;11.87;10.87;;;18.70;85.40;;;;;;5017088;28;20198;-59
2022/07/16 04:37:41;;;;;;;13.80;10.50;;;18.70;86.30;;;;;;5012719;28;20318;-59
2022/07/16 04:40:08;;;;;;;12.80;11.60;;;18.80;86.00;;;;;;5025074;28;20274;-59
2022/07/16 04:42:37;;;;;;;13.80;12.00;;;18.80;86.00;;;;;;5024926;28;20183;-59
2022/07/16 04:45:03;;;;;;;12.00;10.80;;;18.90;85.50;;;;;;5043301;28;20186;-59
2022/07/16 04:47:28;;;;;;;13.20;11.73;;;18.70;85.20;;;;;;5010104;28;20192;-58
2022/07/16 04:49:54;;;;;;;12.90;11.70;;;18.70;85.90;;;;;;5052758;28;20187;-56
2022/07/16 04:52:20;;;;;;;13.67;12.30;;;18.60;85.90;;;;;;5044042;28;20192;-57
2022/07/16 04:54:45;;;;;;;13.33;11.97;;;18.70;86.70;;;;;;5019437;28;20192;-57
2022/07/16 04:57:11;;;;;;;12.93;11.77;;;18.80;86.60;;;;;;5022830;28;20251;-58
2022/07/16 04:59:37;;;;;;;15.83;12.20;;;18.80;85.80;;;;;;5030636;28;20211;-58
2022/07/16 05:04:47;;;;;;;14.03;12.77;;;18.80;84.70;;;;;;5039910;28;20277;-58
2022/07/16 05:07:12;;;;;;;14.03;12.53;;;18.80;86.00;;;;;;5035249;28;20306;-58
2022/07/16 05:09:38;;;;;;;14.40;12.90;;;18.80;84.80;;;;;;5054883;28;20238;-51
2022/07/16 05:12:04;;;;;;;14.67;13.00;;;18.70;85.60;;;;;;5020356;28;20198;-56
2022/07/16 05:14:29;;;;;;;14.00;12.70;;;18.70;85.40;;;;;;5053206;28;20179;-57
2022/07/16 05:16:56;;;;;;;12.80;11.60;;;18.70;85.90;;;;;;5036887;28;20225;-55
2022/07/16 05:19:22;;;;;;;14.17;12.87;;;18.70;86.10;;;;;;5023801;28;20193;-57
2022/07/16 05:21:48;;;;;;;14.60;13.23;;;18.70;86.40;;;;;;5030497;28;20271;-54
2022/07/16 05:24:14;;;;;;;14.80;13.23;;;18.80;86.30;;;;;;5031161;28;20281;-55
2022/07/16 05:26:39;;;;;;;15.60;14.17;;;18.90;85.70;;;;;;5032574;28;20212;-57
2022/07/16 05:29:05;;;;;;;14.77;13.27;;;18.90;85.60;;;;;;5028767;28;20190;-57
2022/07/16 05:31:31;;;;;;;15.83;14.33;;;18.80;85.70;;;;;;5030515;28;20187;-56
2022/07/16 05:33:57;;;;;;;14.93;13.40;;;18.80;85.90;;;;;;5021743;28;20285;-56
2022/07/16 05:36:22;;;;;;;14.47;13.07;;;18.80;85.40;;;;;;5019903;28;20197;-56
2022/07/16 05:38:48;;;;;;;14.80;13.40;;;18.80;85.20;;;;;;5022014;28;20191;-56
2022/07/16 05:41:14;;;;;;;16.13;14.60;;;18.80;85.20;;;;;;5023829;28;20226;-57
2022/07/16 05:43:39;;;;;;;15.33;13.17;;;18.80;85.90;;;;;;5003602;28;20283;-57
2022/07/16 05:46:05;;;;;;;14.80;13.40;;;18.90;85.50;;;;;;5010006;28;20237;-57
2022/07/16 05:48:31;;;;;;;15.10;13.60;;;18.90;85.70;;;;;;5013433;28;20191;-57
2022/07/16 05:50:56;;;;;;;14.57;13.27;;;19.00;85.60;;;;;;5035809;28;20219;-57
2022/07/16 05:53:22;;;;;;;13.80;12.57;;;19.00;85.60;;;;;;5037488;28;20182;-56
2022/07/16 05:55:48;;;;;;;14.93;13.53;;;19.10;85.80;;;;;;5024364;28;20216;-56
2022/07/16 05:58:13;;;;;;;15.07;13.57;;;19.10;85.90;;;;;;5009313;28;20193;-57
2022/07/16 06:00:39;;;;;;;14.47;12.97;;;19.10;85.90;;;;;;5030498;28;20206;-56
2022/07/16 06:03:05;;;;;;;14.07;12.60;;;19.20;86.00;;;;;;5047307;28;20277;-57
2022/07/16 06:05:31;;;;;;;13.37;12.03;;;19.20;86.10;;;;;;5023860;28;20187;-56
2022/07/16 06:07:56;;;;;;;13.30;12.10;;;19.30;86.40;;;;;;5023583;28;20198;-57
2022/07/16 06:10:22;;;;;;;12.10;10.93;;;19.30;86.50;;;;;;5004361;28;20282;-56
2022/07/16 06:12:48;;;;;;;12.03;10.90;;;19.30;86.50;;;;;;5003096;28;20192;-56
2022/07/16 06:15:14;;;;;;;10.67;8.83;;;19.30;86.10;;;;;;5001891;28;20220;-59
2022/07/16 06:17:40;;;;;;;10.40;9.40;;;19.30;84.90;;;;;;5001902;28;20187;-59
2022/07/16 06:20:07;;;;;;;9.17;8.27;;;19.40;84.50;;;;;;5021366;28;20222;-59
2022/07/16 06:22:33;;;;;;;10.17;8.47;;;19.50;84.10;;;;;;5010863;28;20184;-59
2022/07/16 06:24:59;;;;;;;10.03;9.03;;;19.40;82.70;;;;;;5013059;28;20175;-59
2022/07/16 06:27:26;;;;;;;9.37;8.33;;;19.40;82.40;;;;;;5001458;28;20198;-58
2022/07/16 06:29:51;;;;;;;9.57;8.67;;;19.40;81.10;;;;;;5015674;28;20184;-58
2022/07/16 06:32:17;;;;;;;9.63;8.73;;;19.50;83.20;;;;;;5014127;28;20542;-58
2022/07/16 06:34:43;;;;;;;8.70;7.50;;;19.50;81.80;;;;;;5025436;28;20194;-58
2022/07/16 06:37:08;;;;;;;9.57;8.67;;;19.50;81.50;;;;;;5015638;28;20193;-58
2022/07/16 06:39:34;;;;;;;8.80;8.00;;;19.60;82.70;;;;;;5012505;28;20197;-58
2022/07/16 06:42:00;;;;;;;11.33;8.70;;;19.60;81.30;;;;;;5009676;28;20205;-57
2022/07/16 06:44:26;;;;;;;9.13;8.13;;;19.60;81.30;;;;;;5018513;28;20185;-58
2022/07/16 06:46:52;;;;;;;8.23;7.53;;;19.70;82.50;;;;;;5000868;28;20191;-61
2022/07/16 06:49:18;;;;;;;8.30;7.20;;;19.80;82.80;;;;;;4992062;28;20187;-63
2022/07/16 06:51:44;;;;;;;7.10;6.50;;;19.80;81.50;;;;;;4998082;28;20278;-60
2022/07/16 06:54:10;;;;;;;7.77;7.07;;;19.80;81.60;;;;;;5012349;28;20185;-60
2022/07/16 06:56:35;;;;;;;7.20;6.50;;;19.80;81.30;;;;;;4980865;28;20210;-60
2022/07/16 06:59:01;;;;;;;6.40;5.90;;;19.80;82.10;;;;;;5004601;28;20241;-60
2022/07/16 07:01:27;;;;;;;5.90;5.30;;;19.90;83.30;;;;;;4985767;28;20207;-60
2022/07/16 07:03:53;;;;;;;5.73;5.23;;;20.00;82.70;;;;;;4981611;28;20198;-60
2022/07/16 07:06:18;;;;;;;6.23;5.50;;;20.00;82.40;;;;;;4976328;28;20564;-60
2022/07/16 07:08:44;;;;;;;6.37;4.90;;;20.00;80.80;;;;;;5023773;28;20230;-59
2022/07/16 07:11:10;;;;;;;5.20;4.70;;;20.00;79.70;;;;;;5019056;28;20195;-60
2022/07/16 07:13:37;;;;;;;5.10;4.60;;;20.00;80.50;;;;;;5024261;28;20187;-60
2022/07/16 07:16:03;;;;;;;5.60;4.73;;;20.00;80.40;;;;;;5015294;28;20194;-61
2022/07/16 07:18:29;;;;;;;5.63;4.60;;;20.10;80.90;;;;;;5053850;28;20175;-60
2022/07/16 07:20:56;;;;;;;5.73;5.10;;;20.10;80.90;;;;;;5055517;28;20217;-58
2022/07/16 07:23:21;;;;;;;6.30;5.13;;;20.20;81.30;;;;;;5038663;28;20186;-58
2022/07/16 07:25:47;;;;;;;5.17;4.17;;;20.20;80.90;;;;;;5043068;28;20175;-58
2022/07/16 07:28:13;;;;;;;4.93;4.53;;;20.20;80.60;;;;;;5045708;28;20329;-60
2022/07/16 07:30:39;;;;;;;5.57;4.40;;;20.20;80.30;;;;;;5050364;28;20198;-58
2022/07/16 07:33:04;;;;;;;5.00;4.30;;;20.30;80.60;;;;;;5030266;28;20195;-60
2022/07/16 07:35:30;;;;;;;4.67;4.23;;;20.30;80.10;;;;;;5052431;28;20197;-60
2022/07/16 07:37:55;;;;;;;6.97;4.37;;;20.30;79.10;;;;;;5056363;28;20186;-59
2022/07/16 07:40:21;;;;;;;5.53;4.40;;;20.30;78.50;;;;;;5056029;28;20291;-59
2022/07/16 07:42:47;;;;;;;5.30;4.77;;;20.30;78.30;;;;;;5035162;28;20179;-59
2022/07/16 07:45:12;;;;;;;5.57;4.90;;;20.40;79.30;;;;;;5035241;28;20179;-58
2022/07/16 07:47:38;;;;;;;4.77;4.37;;;20.40;78.40;;;;;;5064465;28;20273;-59
2022/07/16 07:50:06;;;;;;;5.20;4.63;;;20.40;78.40;;;;;;5030840;28;20190;-59
2022/07/16 07:52:32;;;;;;;5.47;4.83;;;20.40;76.60;;;;;;5038677;28;20252;-59
2022/07/16 07:54:58;;;;;;;5.13;4.63;;;20.50;77.40;;;;;;5057252;28;20190;-59
2022/07/16 07:57:24;;;;;;;5.13;4.63;;;20.60;77.70;;;;;;5047876;28;20198;-59
2022/07/16 07:59:50;;;;;;;4.63;4.23;;;20.60;77.60;;;;;;5021362;28;20214;-59
2022/07/16 08:02:15;;;;;;;7.70;4.73;;;20.50;75.20;;;;;;5031794;28;20252;-59
2022/07/16 08:04:41;;;;;;;5.17;4.67;;;20.70;75.00;;;;;;5036204;28;20190;-59
2022/07/16 08:07:07;;;;;;;4.70;4.30;;;20.70;73.20;;;;;;5030614;28;20186;-59
2022/07/16 08:09:33;;;;;;;5.57;5.07;;;20.70;73.20;;;;;;5027686;28;20238;-59
2022/07/16 08:11:59;;;;;;;5.47;4.77;;;20.70;72.10;;;;;;5031120;28;20217;-59
2022/07/16 08:14:24;;;;;;;5.13;4.60;;;20.70;73.00;;;;;;5042369;28;20179;-59
2022/07/16 08:16:50;;;;;;;5.20;4.57;;;20.80;73.00;;;;;;5026087;28;20189;-59
2022/07/16 08:19:16;;;;;;;4.93;4.53;;;20.80;74.40;;;;;;5043263;28;20185;-59
2022/07/16 08:21:41;;;;;;;5.03;4.53;;;20.80;75.90;;;;;;5024740;28;20206;-59
2022/07/16 08:26:51;;;;;;;7.57;4.90;;;21.00;76.50;;;;;;5054074;28;20232;-60
2022/07/16 08:29:17;;;;;;;5.87;5.03;;;21.10;74.80;;;;;;5053909;28;20182;-60
2022/07/16 08:31:43;;;;;;;5.37;4.87;;;21.00;74.80;;;;;;5055854;28;20182;-60
2022/07/16 08:34:08;;;;;;;5.50;5.03;;;21.00;77.10;;;;;;5043720;28;20197;-60
2022/07/16 08:36:34;;;;;;;5.60;5.03;;;21.10;77.80;;;;;;5032312;28;20190;-60
2022/07/16 08:39:00;;;;;;;5.93;4.53;;;21.00;76.40;;;;;;5040636;28;20194;-60
2022/07/16 08:41:25;;;;;;;6.03;5.40;;;21.00;77.10;;;;;;5053823;28;20210;-60
2022/07/16 08:43:51;;;;;;;6.37;5.77;;;21.00;77.00;;;;;;5070300;28;20187;-60
2022/07/16 08:46:20;;;;;;;6.17;5.67;;;21.00;78.00;;;;;;5052580;28;20189;-59
2022/07/16 08:48:48;;;;;;;6.57;6.00;;;21.10;77.60;;;;;;5039530;28;20232;-59
2022/07/16 08:51:20;;;;;;;6.63;6.00;;;21.10;75.40;;;;;;5037664;28;20194;-60
2022/07/16 08:53:45;;;;;;;6.63;5.97;;;21.10;75.40;;;;;;5049566;28;20190;-60
2022/07/16 08:56:11;;;;;;;7.07;6.47;;;21.20;74.40;;;;;;5016691;28;20202;-60
2022/07/16 08:58:37;;;;;;;7.23;6.53;;;21.20;74.60;;;;;;5032659;28;20198;-60
2022/07/16 09:01:02;;;;;;;7.30;6.17;;;21.20;75.10;;;;;;5036029;28;20263;-60
2022/07/16 09:03:28;;;;;;;9.93;6.33;;;21.20;75.60;;;;;;5017317;28;20190;-60
2022/07/16 09:05:54;;;;;;;6.70;6.10;;;21.20;74.30;;;;;;5034732;28;20184;-60
2022/07/16 09:08:20;;;;;;;7.00;6.30;;;21.20;73.90;;;;;;5027422;28;20234;-60
2022/07/16 09:10:46;;;;;;;6.83;6.20;;;21.20;75.90;;;;;;5051144;28;20194;-60
2022/07/16 09:13:13;;;;;;;7.00;6.27;;;21.20;75.00;;;;;;5052623;28;20206;-60
2022/07/16 09:15:41;;;;;;;7.37;6.67;;;21.30;75.10;;;;;;5037213;28;20189;-60
2022/07/16 09:18:13;;;;;;;7.40;6.80;;;21.20;75.00;;;;;;5042950;28;20203;-60
2022/07/16 09:20:43;;;;;;;7.03;6.33;;;21.20;76.40;;;;;;5052385;28;20252;-60
2022/07/16 09:23:32;;;;;;;7.20;6.30;;;21.30;76.40;;;;;;5047310;28;20249;-60
2022/07/16 09:25:59;;;;;;;7.07;6.40;;;21.30;75.60;;;;;;5042653;28;20187;-60
2022/07/16 09:28:26;;;;;;;7.37;6.63;;;21.40;74.00;;;;;;5063967;28;20217;-60
2022/07/16 09:30:52;;;;;;;7.37;6.70;;;21.40;74.60;;;;;;5060907;28;20198;-60
2022/07/16 09:33:21;;;;;;;8.03;7.23;;;21.50;76.90;;;;;;5049168;28;20289;-60
2022/07/16 09:35:48;;;;;;;6.80;6.20;;;21.50;75.70;;;;;;5053080;28;20208;-60
2022/07/16 09:38:14;;;;;;;6.67;6.07;;;21.70;73.60;;;;;;5057988;28;20202;-60
2022/07/16 09:40:46;;;;;;;7.17;6.47;;;21.60;74.10;;;;;;5068023;28;20214;-60
2022/07/16 09:43:11;;;;;;;7.03;6.37;;;21.50;74.70;;;;;;5073577;28;20189;-60
2022/07/16 09:45:39;;;;;;;7.23;6.53;;;21.60;75.70;;;;;;5052764;28;20197;-60
2022/07/16 09:48:26;;;;;;;6.60;5.90;;;21.60;74.80;;;;;;5057096;28;20197;-60
2022/07/16 09:50:54;;;;;;;6.90;6.30;;;21.60;74.80;;;;;;5046813;28;20196;-60
2022/07/16 09:53:22;;;;;;;7.07;6.33;;;21.70;76.60;;;;;;5039079;28;20252;-60
2022/07/16 09:56:06;;;;;;;6.93;6.27;;;21.70;76.80;;;;;;5044472;28;20199;-60
2022/07/16 09:58:33;;;;;;;6.87;6.23;;;21.80;76.70;;;;;;5059031;28;20196;-60
2022/07/16 10:01:00;;;;;;;6.47;5.87;;;21.80;76.70;;;;;;5069657;28;20218;-60
2022/07/16 10:03:27;;;;;;;7.93;6.63;;;21.80;75.60;;;;;;5053623;28;20189;-60
2022/07/16 10:05:53;;;;;;;6.60;6.00;;;21.80;74.20;;;;;;5044736;28;20190;-60
2022/07/16 10:08:19;;;;;;;7.03;6.33;;;21.80;75.40;;;;;;5034104;28;20234;-60
2022/07/16 10:10:45;;;;;;;6.67;5.97;;;22.00;74.50;;;;;;5039901;28;20198;-60
2022/07/16 10:13:13;;;;;;;8.27;6.77;;;22.00;74.80;;;;;;5052771;28;20193;-60
2022/07/16 10:15:39;;;;;;;7.17;6.57;;;22.10;73.70;;;;;;5035996;28;20251;-60
2022/07/16 10:18:34;;;;;;;6.47;5.87;;;22.10;72.70;;;;;;5060352;28;20191;-60
2022/07/16 10:21:03;;;;;;;7.00;6.40;;;22.00;72.90;;;;;;5050120;28;20210;-60
2022/07/16 10:23:30;;;;;;;6.40;5.83;;;22.10;73.30;;;;;;5052143;28;20189;-60
2022/07/16 10:26:05;;;;;;;6.67;6.07;;;22.20;73.20;;;;;;5014076;28;20198;-60
2022/07/16 10:29:00;;;;;;;6.63;6.13;;;22.20;73.00;;;;;;5052474;28;20659;-60
2022/07/16 10:34:35;;;;;;;6.63;6.13;;;22.20;72.70;;;;;;5060930;28;20216;-60
2022/07/16 10:37:02;;;;;;;6.30;5.80;;;22.20;74.00;;;;;;5062876;28;20201;-60
2022/07/16 10:39:28;;;;;;;6.70;6.10;;;22.20;73.90;;;;;;5044658;28;20316;-61
2022/07/16 10:41:58;;;;;;;6.43;5.83;;;22.30;74.30;;;;;;5038515;28;20234;-61
2022/07/16 10:44:26;;;;;;;6.60;6.10;;;22.30;72.80;;;;;;5062358;28;20217;-61
2022/07/16 10:46:57;;;;;;;6.87;6.27;;;22.50;74.40;;;;;;5048954;28;20181;-61
2022/07/16 10:49:24;;;;;;;6.80;6.10;;;22.50;73.60;;;;;;5056852;28;20186;-61
2022/07/16 10:52:03;;;;;;;6.60;6.07;;;22.60;74.30;;;;;;5056482;28;20218;-61
2022/07/16 10:54:33;;;;;;;7.23;6.63;;;22.60;72.70;;;;;;5054559;28;20213;-61
2022/07/16 10:57:04;;;;;;;7.60;5.70;;;22.70;71.70;;;;;;5026112;28;20198;-61
2022/07/16 10:59:38;;;;;;;6.53;5.93;;;22.70;71.00;;;;;;5052672;28;20202;-61
2022/07/16 11:02:12;;;;;;;6.33;5.83;;;22.80;71.80;;;;;;5050153;28;20249;-61
2022/07/16 11:04:40;;;;;;;6.17;5.57;;;22.70;72.20;;;;;;5043348;28;20241;-62
2022/07/16 11:07:12;;;;;;;5.73;5.23;;;22.70;73.60;;;;;;5041388;28;20199;-61
2022/07/16 11:09:40;;;;;;;6.20;5.60;;;22.70;74.00;;;;;;5064340;28;20276;-60
2022/07/16 11:12:11;;;;;;;6.40;5.90;;;22.70;74.70;;;;;;5049834;28;20198;-61
2022/07/16 11:14:38;;;;;;;7.63;6.40;;;22.70;74.40;;;;;;5044974;28;20210;-62
2022/07/16 11:17:04;;;;;;;6.40;5.80;;;22.80;73.80;;;;;;5048031;28;20236;-61
2022/07/16 11:19:34;;;;;;;6.50;6.00;;;22.80;73.30;;;;;;5041134;28;20223;-61
2022/07/16 11:22:01;;;;;;;6.67;6.07;;;22.80;72.90;;;;;;5032911;28;20195;-61
2022/07/16 11:24:29;;;;;;;6.20;5.63;;;22.90;73.90;;;;;;5046804;28;20211;-61
2022/07/16 11:26:56;;;;;;;6.77;6.00;;;22.90;74.30;;;;;;5041760;28;20191;-61
2022/07/16 11:29:24;;;;;;;6.73;6.23;;;22.90;73.40;;;;;;5035298;28;20190;-62
2022/07/16 11:31:50;;;;;;;6.07;5.57;;;23.00;73.60;;;;;;5041133;28;20221;-61
2022/07/16 11:34:22;;;;;;;6.23;5.63;;;23.10;72.70;;;;;;5044534;28;20190;-61
2022/07/16 11:36:50;;;;;;;12.10;6.23;;;23.20;73.00;;;;;;5047362;28;20191;-61
2022/07/16 11:39:19;;;;;;;6.90;6.30;;;23.20;72.90;;;;;;5042020;28;20247;-62
2022/07/16 11:41:48;;;;;;;6.43;5.90;;;23.20;73.70;;;;;;5065758;28;20198;-62
2022/07/16 11:44:23;;;;;;;6.40;5.80;;;23.20;74.20;;;;;;5045906;28;20178;-62
2022/07/16 11:46:53;;;;;;;7.07;6.47;;;23.30;71.80;;;;;;5050020;28;20216;-62
2022/07/16 11:49:38;;;;;;;6.50;5.90;;;23.30;72.20;;;;;;5054199;28;20174;-62
2022/07/16 11:52:26;;;;;;;6.40;5.90;;;23.40;72.20;;;;;;5050070;28;20182;-62
2022/07/16 11:54:56;;;;;;;6.37;5.87;;;23.50;72.40;;;;;;5047600;28;20175;-61
2022/07/16 11:57:22;;;;;;;6.40;5.80;;;23.60;73.50;;;;;;5026481;28;20187;-62
2022/07/16 11:59:55;;;;;;;6.80;6.07;;;23.70;69.60;;;;;;5048622;28;20233;-61
2022/07/16 12:02:25;;;;;;;5.90;5.30;;;23.80;70.60;;;;;;5037970;28;20179;-62
2022/07/16 12:04:55;;;;;;;7.80;5.20;;;23.90;67.10;;;;;;5043079;28;20210;-62
2022/07/16 12:07:24;;;;;;;6.07;5.53;;;24.00;67.40;;;;;;5048343;28;20222;-62
2022/07/16 12:09:52;;;;;;;6.20;5.60;;;24.10;67.60;;;;;;5047883;28;20320;-62
2022/07/16 12:12:24;;;;;;;5.90;5.50;;;24.20;69.60;;;;;;5048804;28;20179;-62
2022/07/16 12:15:05;;;;;;;6.70;6.10;;;24.30;69.50;;;;;;5044320;28;20187;-62
2022/07/16 12:17:36;;;;;;;6.20;5.53;;;24.60;68.10;;;;;;5043709;28;20191;-62
2022/07/16 12:20:19;;;;;;;6.27;5.67;;;24.90;68.10;;;;;;5049755;28;20214;-62
2022/07/16 12:23:05;;;;;;;5.80;5.23;;;24.90;66.40;;;;;;5049882;28;20205;-61
2022/07/16 12:25:45;;;;;;;9.13;5.70;;;25.00;69.00;;;;;;5024173;28;20278;-62
2022/07/16 12:28:12;;;;;;;5.70;5.20;;;25.10;70.40;;;;;;5016225;28;20248;-61
2022/07/16 12:30:51;;;;;;;8.20;5.80;;;25.10;67.30;;;;;;5040778;28;20216;-61
2022/07/16 12:33:22;;;;;;;5.60;5.00;;;25.30;68.80;;;;;;5046782;28;20193;-61
2022/07/16 12:35:48;;;;;;;5.83;5.23;;;26.00;62.80;;;;;;5041776;28;20274;-62
2022/07/16 12:38:44;;;;;;;6.27;5.70;;;26.40;63.50;;;;;;5046184;28;20278;-61
2022/07/16 12:41:15;;;;;;;6.23;5.57;;;26.70;61.70;;;;;;5049823;28;20213;-62
2022/07/16 12:43:42;;;;;;;7.13;5.33;;;26.80;62.80;;;;;;5048205;28;20188;-61
2022/07/16 12:46:09;;;;;;;6.73;5.23;;;27.30;60.00;;;;;;5036856;28;20186;-62
2022/07/16 12:48:50;;;;;;;6.43;5.20;;;27.60;59.30;;;;;;5047886;28;20276;-61
2022/07/16 12:51:22;;;;;;;5.57;5.07;;;27.80;57.40;;;;;;5047156;28;20187;-62